^^
Saratoga-Weather Station Historical Data
Daily Summary for July 02, 2022 Units:  Both    English   Metric
Daily Weekly Monthly Yearly Custom
  High: Low: Average:
Temperature: 73.8 °F /  23.2 °C 49.6 °F /  9.8 °C 58.3 °F /  14.6 °C
Dew Point: 55.8 °F /  13.2 °C 47.1 °F /  8.4 °C 50.5 °F /  10.3 °C
Humidity: 92% 48% 77%
Wind Speed: 6.9mph /  11.1km/h - 0.5mph /  0.8km/h
Wind Gust: 7mph /  11.3km/h - -
Wind- - ESE
Pressure: 30.2 in /  1022.0 hPa 30.1 in /  1020.7 hPa -
Precipitation: 0 in /  0.0 mm    
Historical Graphs
 
 
Tabular Data for July 02, 2022
Time Temperature Dew Point Pressure Wind Wind Speed Wind Gust Humidity Rainfall Rate (Hourly) solar
00:02 57.6 °F /  14.2 °C 50.4 °F /  10.2 °C 30.2in /  1021.3hPa Calm     77% 0in /  0.0mm 0 W/m2
00:07 57.4 °F /  14.1 °C 50.5 °F /  10.3 °C 30.2in /  1021.3hPa Calm     78% 0in /  0.0mm 0 W/m2
00:12 57.2 °F /  14 °C 50.4 °F /  10.2 °C 30.2in /  1021.3hPa Calm     78% 0in /  0.0mm 0 W/m2
00:17 57 °F /  13.9 °C 50.2 °F /  10.1 °C 30.2in /  1021.3hPa Calm     78% 0in /  0.0mm 0 W/m2
00:22 56.8 °F /  13.8 °C 50.4 °F /  10.2 °C 30.2in /  1021.3hPa Calm     79% 0in /  0.0mm 0 W/m2
00:27 56.7 °F /  13.7 °C 50.2 °F /  10.1 °C 30.2in /  1021.7hPa Calm     79% 0in /  0.0mm 0 W/m2
00:32 56.5 °F /  13.6 °C 50.4 °F /  10.2 °C 30.2in /  1021.7hPa Calm     80% 0in /  0.0mm 0 W/m2
00:37 56.1 °F /  13.4 °C 50 °F /  10 °C 30.2in /  1021.7hPa Calm     80% 0in /  0.0mm 0 W/m2
00:42 55.9 °F /  13.3 °C 49.8 °F /  9.9 °C 30.2in /  1021.3hPa Calm     80% 0in /  0.0mm 0 W/m2
00:47 55.9 °F /  13.3 °C 49.8 °F /  9.9 °C 30.2in /  1021.7hPa Calm     80% 0in /  0.0mm 0 W/m2
00:52 55.8 °F /  13.2 °C 49.6 °F /  9.8 °C 30.2in /  1021.7hPa Calm     80% 0in /  0.0mm 0 W/m2
00:57 55.8 °F /  13.2 °C 49.6 °F /  9.8 °C 30.2in /  1021.7hPa Calm     80% 0in /  0.0mm 0 W/m2
01:02 55.6 °F /  13.1 °C 49.5 °F /  9.7 °C 30.2in /  1021.7hPa Calm     80% 0in /  0.0mm 0 W/m2
01:07 55.4 °F /  13 °C 49.6 °F /  9.8 °C 30.2in /  1021.7hPa Calm     81% 0in /  0.0mm 0 W/m2
01:12 55.2 °F /  12.9 °C 49.5 °F /  9.7 °C 30.2in /  1021.7hPa Calm     81% 0in /  0.0mm 0 W/m2
01:17 55 °F /  12.8 °C 49.3 °F /  9.6 °C 30.2in /  1021.7hPa Calm     81% 0in /  0.0mm 0 W/m2
01:22 54.9 °F /  12.7 °C 49.5 °F /  9.7 °C 30.2in /  1021.7hPa Calm     82% 0in /  0.0mm 0 W/m2
01:28 54.7 °F /  12.6 °C 49.3 °F /  9.6 °C 30.2in /  1021.7hPa Calm     82% 0in /  0.0mm 0 W/m2
01:33 54.3 °F /  12.4 °C 48.9 °F /  9.4 °C 30.2in /  1021.7hPa Calm     82% 0in /  0.0mm 0 W/m2
01:38 54.3 °F /  12.4 °C 48.9 °F /  9.4 °C 30.2in /  1021.7hPa Calm     82% 0in /  0.0mm 0 W/m2
01:43 54.3 °F /  12.4 °C 49.3 °F /  9.6 °C 30.2in /  1021.7hPa Calm     83% 0in /  0.0mm 0 W/m2
01:48 54.3 °F /  12.4 °C 49.3 °F /  9.6 °C 30.2in /  1021.3hPa Calm     83% 0in /  0.0mm 0 W/m2
01:53 54.1 °F /  12.3 °C 49.1 °F /  9.5 °C 30.2in /  1021.7hPa Calm     83% 0in /  0.0mm 0 W/m2
01:58 54.1 °F /  12.3 °C 49.1 °F /  9.5 °C 30.2in /  1021.7hPa Calm     83% 0in /  0.0mm 0 W/m2
02:03 54 °F /  12.2 °C 48.9 °F /  9.4 °C 30.2in /  1021.7hPa Calm     83% 0in /  0.0mm 0 W/m2
02:08 53.8 °F /  12.1 °C 48.7 °F /  9.3 °C 30.2in /  1021.7hPa Calm     83% 0in /  0.0mm 0 W/m2
02:13 53.8 °F /  12.1 °C 48.7 °F /  9.3 °C 30.2in /  1021.7hPa Calm     83% 0in /  0.0mm 0 W/m2
02:18 53.4 °F /  11.9 °C 48.4 °F /  9.1 °C 30.2in /  1021.7hPa Calm     83% 0in /  0.0mm 0 W/m2
02:23 53.2 °F /  11.8 °C 48.6 °F /  9.2 °C 30.2in /  1021.7hPa Calm     84% 0in /  0.0mm 0 W/m2
02:28 53.2 °F /  11.8 °C 48.6 °F /  9.2 °C 30.2in /  1021.7hPa Calm     84% 0in /  0.0mm 0 W/m2
02:33 53.2 °F /  11.8 °C 48.9 °F /  9.4 °C 30.2in /  1021.7hPa Calm     85% 0in /  0.0mm 0 W/m2
02:38 53.2 °F /  11.8 °C 48.9 °F /  9.4 °C 30.2in /  1021.7hPa Calm     85% 0in /  0.0mm 0 W/m2
02:43 53.1 °F /  11.7 °C 48.7 °F /  9.3 °C 30.2in /  1021.7hPa Calm     85% 0in /  0.0mm 0 W/m2
02:48 53.1 °F /  11.7 °C 48.7 °F /  9.3 °C 30.2in /  1021.7hPa Calm     85% 0in /  0.0mm 0 W/m2
02:53 52.9 °F /  11.6 °C 48.6 °F /  9.2 °C 30.2in /  1021.7hPa Calm     85% 0in /  0.0mm 0 W/m2
02:58 52.9 °F /  11.6 °C 48.6 °F /  9.2 °C 30.2in /  1021.7hPa Calm     85% 0in /  0.0mm 0 W/m2
03:03 52.5 °F /  11.4 °C 48.4 °F /  9.1 °C 30.2in /  1021.3hPa Calm     86% 0in /  0.0mm 0 W/m2
03:08 52.5 °F /  11.4 °C 48.4 °F /  9.1 °C 30.2in /  1021.7hPa Calm     86% 0in /  0.0mm 0 W/m2
03:13 52.3 °F /  11.3 °C 48.2 °F /  9 °C 30.2in /  1021.3hPa Calm     86% 0in /  0.0mm 0 W/m2
03:18 52.3 °F /  11.3 °C 48.2 °F /  9 °C 30.2in /  1021.3hPa Calm     86% 0in /  0.0mm 0 W/m2
03:23 52.2 °F /  11.2 °C 48.4 °F /  9.1 °C 30.2in /  1021.3hPa Calm     87% 0in /  0.0mm 0 W/m2
03:28 52 °F /  11.1 °C 48.2 °F /  9 °C 30.2in /  1021.3hPa Calm     87% 0in /  0.0mm 0 W/m2
03:33 51.8 °F /  11 °C 48 °F /  8.9 °C 30.2in /  1021.3hPa Calm     87% 0in /  0.0mm 0 W/m2
03:38 51.6 °F /  10.9 °C 47.8 °F /  8.8 °C 30.2in /  1021.3hPa Calm     87% 0in /  0.0mm 0 W/m2
03:43 51.4 °F /  10.8 °C 48 °F /  8.9 °C 30.2in /  1021.3hPa Calm     88% 0in /  0.0mm 0 W/m2
03:48 51.4 °F /  10.8 °C 48 °F /  8.9 °C 30.2in /  1021.3hPa Calm     88% 0in /  0.0mm 0 W/m2
03:53 51.4 °F /  10.8 °C 48 °F /  8.9 °C 30.2in /  1021.3hPa Calm     88% 0in /  0.0mm 0 W/m2
03:58 51.3 °F /  10.7 °C 47.8 °F /  8.8 °C 30.2in /  1021.7hPa Calm     88% 0in /  0.0mm 0 W/m2
04:03 51.3 °F /  10.7 °C 48.2 °F /  9 °C 30.2in /  1021.3hPa Calm     89% 0in /  0.0mm 0 W/m2
04:08 51.3 °F /  10.7 °C 48.2 °F /  9 °C 30.2in /  1021.7hPa Calm     89% 0in /  0.0mm 0 W/m2
04:13 51.1 °F /  10.6 °C 48 °F /  8.9 °C 30.2in /  1021.3hPa Calm     89% 0in /  0.0mm 0 W/m2
04:18 50.9 °F /  10.5 °C 47.8 °F /  8.8 °C 30.2in /  1021.7hPa Calm     89% 0in /  0.0mm 0 W/m2
04:23 50.7 °F /  10.4 °C 47.7 °F /  8.7 °C 30.2in /  1021.7hPa Calm     89% 0in /  0.0mm 0 W/m2
04:28 50.5 °F /  10.3 °C 47.5 °F /  8.6 °C 30.2in /  1021.7hPa Calm     89% 0in /  0.0mm 0 W/m2
04:33 50.5 °F /  10.3 °C 47.5 °F /  8.6 °C 30.2in /  1021.3hPa Calm     89% 0in /  0.0mm 0 W/m2
04:38 50.4 °F /  10.2 °C 47.5 °F /  8.6 °C 30.2in /  1021.7hPa Calm     90% 0in /  0.0mm 0 W/m2
04:43 50.4 °F /  10.2 °C 47.5 °F /  8.6 °C 30.2in /  1021.7hPa Calm     90% 0in /  0.0mm 0 W/m2
04:48 50.4 °F /  10.2 °C 47.5 °F /  8.6 °C 30.2in /  1021.7hPa Calm     90% 0in /  0.0mm 0 W/m2
04:53 50.2 °F /  10.1 °C 47.3 °F /  8.5 °C 30.2in /  1021.7hPa Calm     90% 0in /  0.0mm 0 W/m2
04:58 50 °F /  10 °C 47.1 °F /  8.4 °C 30.2in /  1021.7hPa Calm     90% 0in /  0.0mm 0 W/m2
05:03 49.8 °F /  9.9 °C 47.3 °F /  8.5 °C 30.2in /  1021.7hPa Calm     91% 0in /  0.0mm 0 W/m2
05:08 49.8 °F /  9.9 °C 47.3 °F /  8.5 °C 30.2in /  1021.7hPa Calm     91% 0in /  0.0mm 0 W/m2
05:13 49.8 °F /  9.9 °C 47.3 °F /  8.5 °C 30.2in /  1021.7hPa Calm     91% 0in /  0.0mm 0 W/m2
05:18 49.8 °F /  9.9 °C 47.3 °F /  8.5 °C 30.2in /  1021.7hPa Calm     91% 0in /  0.0mm 0 W/m2
05:23 49.6 °F /  9.8 °C 47.1 °F /  8.4 °C 30.2in /  1021.7hPa Calm     91% 0in /  0.0mm 0 W/m2
05:28 49.8 °F /  9.9 °C 47.3 °F /  8.5 °C 30.2in /  1021.7hPa Calm     91% 0in /  0.0mm 0 W/m2
05:33 49.8 °F /  9.9 °C 47.3 °F /  8.5 °C 30.2in /  1021.7hPa Calm     91% 0in /  0.0mm 0 W/m2
05:38 49.8 °F /  9.9 °C 47.7 °F /  8.7 °C 30.2in /  1021.7hPa Calm     92% 0in /  0.0mm 5 W/m2
05:43 49.6 °F /  9.8 °C 47.1 °F /  8.4 °C 30.2in /  1021.7hPa Calm     91% 0in /  0.0mm 5 W/m2
05:48 49.6 °F /  9.8 °C 47.1 °F /  8.4 °C 30.2in /  1022.0hPa Calm     91% 0in /  0.0mm 9 W/m2
05:53 49.6 °F /  9.8 °C 47.5 °F /  8.6 °C 30.2in /  1022.0hPa Calm     92% 0in /  0.0mm 9 W/m2
05:58 49.6 °F /  9.8 °C 47.5 °F /  8.6 °C 30.2in /  1021.7hPa Calm     92% 0in /  0.0mm 11 W/m2
06:03 49.6 °F /  9.8 °C 47.5 °F /  8.6 °C 30.2in /  1021.7hPa Calm     92% 0in /  0.0mm 12 W/m2
06:08 49.8 °F /  9.9 °C 47.7 °F /  8.7 °C 30.2in /  1021.7hPa Calm     92% 0in /  0.0mm 14 W/m2
06:13 49.8 °F /  9.9 °C 47.7 °F /  8.7 °C 30.2in /  1021.7hPa Calm     92% 0in /  0.0mm 16 W/m2
06:18 49.8 °F /  9.9 °C 47.7 °F /  8.7 °C 30.2in /  1021.7hPa Calm     92% 0in /  0.0mm 18 W/m2
06:23 49.8 °F /  9.9 °C 47.7 °F /  8.7 °C 30.2in /  1021.7hPa Calm     92% 0in /  0.0mm 18 W/m2
06:28 50 °F /  10 °C 47.8 °F /  8.8 °C 30.2in /  1021.7hPa Calm     92% 0in /  0.0mm 19 W/m2
06:33 50.2 °F /  10.1 °C 48 °F /  8.9 °C 30.2in /  1022.0hPa Calm     92% 0in /  0.0mm 21 W/m2
06:38 50.2 °F /  10.1 °C 48 °F /  8.9 °C 30.2in /  1021.7hPa Calm     92% 0in /  0.0mm 21 W/m2
06:43 50.4 °F /  10.2 °C 48.2 °F /  9 °C 30.2in /  1022.0hPa Calm     92% 0in /  0.0mm 23 W/m2
06:48 50.7 °F /  10.4 °C 48.6 °F /  9.2 °C 30.2in /  1022.0hPa Calm   1mph /  1.6km/h 92% 0in /  0.0mm 23 W/m2
06:53 51.1 °F /  10.6 °C 48.9 °F /  9.4 °C 30.2in /  1022.0hPa West 0.9mph /  1.4km/h 1mph /  1.6km/h 92% 0in /  0.0mm 25 W/m2
06:58 51.4 °F /  10.8 °C 49.3 °F /  9.6 °C 30.2in /  1022.0hPa Calm     92% 0in /  0.0mm 25 W/m2
07:03 51.8 °F /  11 °C 49.3 °F /  9.6 °C 30.2in /  1022.0hPa Calm     91% 0in /  0.0mm 26 W/m2
07:08 52.2 °F /  11.2 °C 49.6 °F /  9.8 °C 30.2in /  1022.0hPa Calm     91% 0in /  0.0mm 26 W/m2
07:13 52.3 °F /  11.3 °C 49.5 °F /  9.7 °C 30.2in /  1022.0hPa Calm     90% 0in /  0.0mm 26 W/m2
07:18 52.5 °F /  11.4 °C 49.6 °F /  9.8 °C 30.2in /  1022.0hPa Calm     90% 0in /  0.0mm 28 W/m2
07:23 52.9 °F /  11.6 °C 50 °F /  10 °C 30.2in /  1022.0hPa Calm     90% 0in /  0.0mm 162 W/m2
07:28 53.8 °F /  12.1 °C 50.5 °F /  10.3 °C 30.2in /  1022.0hPa Calm     89% 0in /  0.0mm 176 W/m2
07:33 54.9 °F /  12.7 °C 51.1 °F /  10.6 °C 30.2in /  1022.0hPa Calm     87% 0in /  0.0mm 190 W/m2
07:38 56.1 °F /  13.4 °C 52 °F /  11.1 °C 30.2in /  1022.0hPa Calm     86% 0in /  0.0mm 204 W/m2
07:43 57.7 °F /  14.3 °C 52.7 °F /  11.5 °C 30.2in /  1022.0hPa Calm     83% 0in /  0.0mm 221 W/m2
07:48 59 °F /  15 °C 52.5 °F /  11.4 °C 30.2in /  1022.0hPa Calm   2mph /  3.2km/h 79% 0in /  0.0mm 236 W/m2
07:53 59.5 °F /  15.3 °C 52 °F /  11.1 °C 30.2in /  1021.7hPa Calm   1mph /  1.6km/h 76% 0in /  0.0mm 250 W/m2
07:58 60.6 °F /  15.9 °C 52.7 °F /  11.5 °C 30.2in /  1021.7hPa North 0.9mph /  1.4km/h 2mph /  3.2km/h 75% 0in /  0.0mm 267 W/m2
08:03 61 °F /  16.1 °C 52.7 °F /  11.5 °C 30.2in /  1021.7hPa Calm   1mph /  1.6km/h 74% 0in /  0.0mm 278 W/m2
08:08 61.3 °F /  16.3 °C 53.1 °F /  11.7 °C 30.2in /  1021.7hPa Calm   2mph /  3.2km/h 74% 0in /  0.0mm 294 W/m2
08:13 61.7 °F /  16.5 °C 52.5 °F /  11.4 °C 30.2in /  1021.7hPa Calm   2mph /  3.2km/h 72% 0in /  0.0mm 308 W/m2
08:18 61.5 °F /  16.4 °C 52.7 °F /  11.5 °C 30.2in /  1021.7hPa NNE 0.9mph /  1.4km/h 1mph /  1.6km/h 73% 0in /  0.0mm 320 W/m2
08:23 61.5 °F /  16.4 °C 53.2 °F /  11.8 °C 30.2in /  1021.7hPa Calm   2mph /  3.2km/h 74% 0in /  0.0mm 295 W/m2
08:28 62.4 °F /  16.9 °C 53.6 °F /  12 °C 30.2in /  1021.7hPa NNE 0.9mph /  1.4km/h 2mph /  3.2km/h 73% 0in /  0.0mm 74 W/m2
08:33 63 °F /  17.2 °C 53.1 °F /  11.7 °C 30.2in /  1021.7hPa Calm   1mph /  1.6km/h 70% 0in /  0.0mm 118 W/m2
08:38 63.1 °F /  17.3 °C 53.2 °F /  11.8 °C 30.2in /  1021.7hPa ENE 0.9mph /  1.4km/h 2mph /  3.2km/h 70% 0in /  0.0mm 42 W/m2
08:43 63.7 °F /  17.6 °C 53.8 °F /  12.1 °C 30.2in /  1021.7hPa NE 0.9mph /  1.4km/h 2mph /  3.2km/h 70% 0in /  0.0mm 42 W/m2
08:48 63.9 °F /  17.7 °C 53.4 °F /  11.9 °C 30.2in /  1021.7hPa Calm   3mph /  4.8km/h 69% 0in /  0.0mm 44 W/m2
08:53 64 °F /  17.8 °C 53.2 °F /  11.8 °C 30.2in /  1021.7hPa SE 0.9mph /  1.4km/h 1mph /  1.6km/h 68% 0in /  0.0mm 42 W/m2
08:58 64.2 °F /  17.9 °C 53.1 °F /  11.7 °C 30.2in /  1021.7hPa Calm   1mph /  1.6km/h 67% 0in /  0.0mm 40 W/m2
09:04 64.8 °F /  18.2 °C 53.1 °F /  11.7 °C 30.2in /  1021.7hPa NE 0.9mph /  1.4km/h 1mph /  1.6km/h 66% 0in /  0.0mm 40 W/m2
09:09 64.9 °F /  18.3 °C 53.2 °F /  11.8 °C 30.2in /  1021.7hPa NNW 0.9mph /  1.4km/h 3mph /  4.8km/h 66% 0in /  0.0mm 40 W/m2
09:14 65.1 °F /  18.4 °C 53.1 °F /  11.7 °C 30.2in /  1021.7hPa ENE 2.9mph /  4.7km/h 4mph /  6.4km/h 65% 0in /  0.0mm 40 W/m2
09:19 65.1 °F /  18.4 °C 53.4 °F /  11.9 °C 30.2in /  1021.3hPa NE 0.9mph /  1.4km/h 1mph /  1.6km/h 66% 0in /  0.0mm 40 W/m2
09:24 65.1 °F /  18.4 °C 53.4 °F /  11.9 °C 30.2in /  1021.3hPa NE 0.9mph /  1.4km/h 4mph /  6.4km/h 66% 0in /  0.0mm 40 W/m2
09:29 65.5 °F /  18.6 °C 53.4 °F /  11.9 °C 30.2in /  1021.3hPa Calm   2mph /  3.2km/h 65% 0in /  0.0mm 39 W/m2
09:34 65.7 °F /  18.7 °C 53.6 °F /  12 °C 30.2in /  1021.3hPa ENE 0.9mph /  1.4km/h 2mph /  3.2km/h 65% 0in /  0.0mm 39 W/m2
09:39 66 °F /  18.9 °C 53.4 °F /  11.9 °C 30.2in /  1021.3hPa NNW 2mph /  3.2km/h 3mph /  4.8km/h 64% 0in /  0.0mm 40 W/m2
09:44 66.4 °F /  19.1 °C 54.3 °F /  12.4 °C 30.2in /  1021.3hPa ENE 2mph /  3.2km/h 3mph /  4.8km/h 65% 0in /  0.0mm 40 W/m2
09:49 66.9 °F /  19.4 °C 54 °F /  12.2 °C 30.2in /  1021.3hPa NE 2mph /  3.2km/h 3mph /  4.8km/h 63% 0in /  0.0mm 40 W/m2
09:54 67.3 °F /  19.6 °C 53.8 °F /  12.1 °C 30.2in /  1021.3hPa ENE 6.9mph /  11.1km/h 7mph /  11.3km/h 62% 0in /  0.0mm 79 W/m2
09:59 67.5 °F /  19.7 °C 53.6 °F /  12 °C 30.2in /  1021.3hPa ENE 2mph /  3.2km/h 4mph /  6.4km/h 61% 0in /  0.0mm 330 W/m2
10:04 67.8 °F /  19.9 °C 53.4 °F /  11.9 °C 30.2in /  1021.3hPa North 2mph /  3.2km/h 6mph /  9.7km/h 60% 0in /  0.0mm 561 W/m2
10:09 68.2 °F /  20.1 °C 54.1 °F /  12.3 °C 30.2in /  1021.3hPa Calm   2mph /  3.2km/h 61% 0in /  0.0mm 603 W/m2
10:14 67.8 °F /  19.9 °C 53.4 °F /  11.9 °C 30.2in /  1021.3hPa Calm   1mph /  1.6km/h 60% 0in /  0.0mm 589 W/m2
10:19 68.5 °F /  20.3 °C 55 °F /  12.8 °C 30.2in /  1021.3hPa Calm   2mph /  3.2km/h 62% 0in /  0.0mm 56 W/m2
10:24 69.1 °F /  20.6 °C 54.1 °F /  12.3 °C 30.2in /  1021.3hPa Calm   3mph /  4.8km/h 59% 0in /  0.0mm 642 W/m2
10:29 69.6 °F /  20.9 °C 54.1 °F /  12.3 °C 30.2in /  1021.0hPa NE 2mph /  3.2km/h 3mph /  4.8km/h 58% 0in /  0.0mm 613 W/m2
10:34 70 °F /  21.1 °C 54 °F /  12.2 °C 30.2in /  1021.3hPa ENE 2.9mph /  4.7km/h 7mph /  11.3km/h 57% 0in /  0.0mm 670 W/m2
10:39 70.2 °F /  21.2 °C 54.7 °F /  12.6 °C 30.2in /  1021.0hPa NE 2.9mph /  4.7km/h 4mph /  6.4km/h 58% 0in /  0.0mm 679 W/m2
10:44 70.2 °F /  21.2 °C 53.8 °F /  12.1 °C 30.2in /  1021.0hPa East 0.9mph /  1.4km/h 7mph /  11.3km/h 56% 0in /  0.0mm 691 W/m2
10:49 70.2 °F /  21.2 °C 54.1 °F /  12.3 °C 30.2in /  1021.0hPa Calm   3mph /  4.8km/h 57% 0in /  0.0mm 705 W/m2
10:54 70.9 °F /  21.6 °C 54.3 °F /  12.4 °C 30.2in /  1021.0hPa East 0.9mph /  1.4km/h 3mph /  4.8km/h 56% 0in /  0.0mm 715 W/m2
10:59 71.8 °F /  22.1 °C 55.8 °F /  13.2 °C 30.2in /  1021.0hPa ESE 0.9mph /  1.4km/h 2mph /  3.2km/h 57% 0in /  0.0mm 729 W/m2
11:04 72.1 °F /  22.3 °C 54.1 °F /  12.3 °C 30.2in /  1021.0hPa Calm   2mph /  3.2km/h 53% 0in /  0.0mm 744 W/m2
11:09 72.3 °F /  22.4 °C 53.8 °F /  12.1 °C 30.1in /  1020.7hPa SW 0.9mph /  1.4km/h 2mph /  3.2km/h 52% 0in /  0.0mm 749 W/m2
11:14 72.7 °F /  22.6 °C 54 °F /  12.2 °C 30.1in /  1020.7hPa SSE 0.9mph /  1.4km/h 2mph /  3.2km/h 52% 0in /  0.0mm 758 W/m2
11:19 73 °F /  22.8 °C 53.2 °F /  11.8 °C 30.1in /  1020.7hPa NNE 2mph /  3.2km/h 4mph /  6.4km/h 50% 0in /  0.0mm 770 W/m2
11:24 73.4 °F /  23 °C 53.6 °F /  12 °C 30.1in /  1020.7hPa East 0.9mph /  1.4km/h 4mph /  6.4km/h 50% 0in /  0.0mm 777 W/m2
11:29 73.8 °F /  23.2 °C 52.9 °F /  11.6 °C 30.1in /  1020.7hPa NNW 2mph /  3.2km/h 6mph /  9.7km/h 48% 0in /  0.0mm 784 W/m2
11:34 73 °F /  22.8 °C 52.2 °F /  11.2 °C 30.1in /  1020.7hPa East 0.9mph /  1.4km/h 3mph /  4.8km/h 48% 0in /  0.0mm 798 W/m2
11:39 73 °F /  22.8 °C 53.2 °F /  11.8 °C 30.1in /  1020.7hPa SE 0.9mph /  1.4km/h 6mph /  9.7km/h 50% 0in /  0.0mm 833 W/m2
11:44 73.6 °F /  23.1 °C 53.2 °F /  11.8 °C 30.1in /  1020.7hPa North 2mph /  3.2km/h 4mph /  6.4km/h 49% 0in /  0.0mm 847 W/m2
11:49 73.8 °F /  23.2 °C 53.4 °F /  11.9 °C 30.1in /  1020.7hPa East 2.9mph /  4.7km/h 6mph /  9.7km/h 49% 0in /  0.0mm 851 W/m2
11:54 73.8 °F /  23.2 °C 52.9 °F /  11.6 °C 30.1in /  1020.7hPa East 4.9mph /  7.9km/h 6mph /  9.7km/h 48% 0in /  0.0mm 798 W/m2
11:59 73.8 °F /  23.2 °C 52.9 °F /  11.6 °C 30.1in /  1020.7hPa Calm   2mph /  3.2km/h 48% 0in /  0.0mm 805 W/m2
12:04 73.8 °F /  23.2 °C 52.9 °F /  11.6 °C 30.1in /  1020.7hPa Calm   6mph /  9.7km/h 48% 0in /  0.0mm 946 W/m2
12:09 73.2 °F /  22.9 °C 52.9 °F /  11.6 °C 30.1in /  1020.7hPa West 6.9mph /  11.1km/h 7mph /  11.3km/h 49% 0in /  0.0mm 888 W/m2
12:14 73.2 °F /  22.9 °C 53.4 °F /  11.9 °C 30.1in /  1020.7hPa WSW 4mph /  6.4km/h 6mph /  9.7km/h 50% 0in /  0.0mm 858 W/m2
12:19 73.4 °F /  23 °C 53.1 °F /  11.7 °C 30.1in /  1020.7hPa WNW 4mph /  6.4km/h 4mph /  6.4km/h 49% 0in /  0.0mm 861 W/m2
12:24 73.8 °F /  23.2 °C 53.4 °F /  11.9 °C 30.1in /  1020.7hPa Calm   3mph /  4.8km/h 49% 0in /  0.0mm 867 W/m2
Juneau County Weather
Compliments of Weather Underground - 2 mb